sensor_id;sensor_type;location;lat;lon;timestamp;P1;durP1;ratioP1;P2;durP2;ratioP2
29908;SDS011;36247;51.952;6.146;2024-03-25T00:00:45;27.10;;;6.07;;
29908;SDS011;36247;51.952;6.146;2024-03-25T00:03:11;23.45;;;5.10;;
29908;SDS011;36247;51.952;6.146;2024-03-25T00:05:36;23.85;;;5.63;;
29908;SDS011;36247;51.952;6.146;2024-03-25T00:08:01;27.63;;;6.50;;
29908;SDS011;36247;51.952;6.146;2024-03-25T00:10:27;26.67;;;4.72;;
29908;SDS011;36247;51.952;6.146;2024-03-25T00:12:52;28.02;;;5.10;;
29908;SDS011;36247;51.952;6.146;2024-03-25T00:15:19;21.85;;;4.30;;
29908;SDS011;36247;51.952;6.146;2024-03-25T00:17:46;21.92;;;5.82;;
29908;SDS011;36247;51.952;6.146;2024-03-25T00:20:14;20.48;;;4.88;;
29908;SDS011;36247;51.952;6.146;2024-03-25T00:22:40;25.27;;;6.22;;
29908;SDS011;36247;51.952;6.146;2024-03-25T00:25:05;22.42;;;4.53;;
29908;SDS011;36247;51.952;6.146;2024-03-25T00:27:31;22.98;;;4.88;;
29908;SDS011;36247;51.952;6.146;2024-03-25T00:29:57;31.27;;;5.63;;
29908;SDS011;36247;51.952;6.146;2024-03-25T00:32:22;27.17;;;5.82;;
29908;SDS011;36247;51.952;6.146;2024-03-25T00:34:48;18.65;;;4.97;;
29908;SDS011;36247;51.952;6.146;2024-03-25T00:37:13;27.33;;;5.20;;
29908;SDS011;36247;51.952;6.146;2024-03-25T00:39:39;21.77;;;4.93;;
29908;SDS011;36247;51.952;6.146;2024-03-25T00:42:05;20.77;;;5.35;;
29908;SDS011;36247;51.952;6.146;2024-03-25T00:44:30;40.55;;;5.32;;
29908;SDS011;36247;51.952;6.146;2024-03-25T00:46:56;23.52;;;5.90;;
29908;SDS011;36247;51.952;6.146;2024-03-25T00:49:21;25.02;;;5.18;;
29908;SDS011;36247;51.952;6.146;2024-03-25T00:51:47;33.13;;;5.07;;
29908;SDS011;36247;51.952;6.146;2024-03-25T00:54:13;22.90;;;5.10;;
29908;SDS011;36247;51.952;6.146;2024-03-25T00:56:38;16.90;;;4.32;;
29908;SDS011;36247;51.952;6.146;2024-03-25T00:59:04;34.25;;;5.88;;
29908;SDS011;36247;51.952;6.146;2024-03-25T01:01:33;21.25;;;4.85;;
29908;SDS011;36247;51.952;6.146;2024-03-25T01:04:01;22.30;;;4.15;;
29908;SDS011;36247;51.952;6.146;2024-03-25T01:06:27;20.88;;;4.53;;
29908;SDS011;36247;51.952;6.146;2024-03-25T01:08:52;23.70;;;4.95;;
29908;SDS011;36247;51.952;6.146;2024-03-25T01:11:17;22.27;;;4.40;;
29908;SDS011;36247;51.952;6.146;2024-03-25T01:13:43;33.25;;;5.47;;
29908;SDS011;36247;51.952;6.146;2024-03-25T01:16:08;32.28;;;5.25;;
29908;SDS011;36247;51.952;6.146;2024-03-25T01:18:34;27.45;;;4.88;;
29908;SDS011;36247;51.952;6.146;2024-03-25T01:21:00;16.83;;;4.07;;
29908;SDS011;36247;51.952;6.146;2024-03-25T01:23:25;22.02;;;4.32;;
29908;SDS011;36247;51.952;6.146;2024-03-25T01:25:51;22.70;;;4.07;;
29908;SDS011;36247;51.952;6.146;2024-03-25T01:28:16;20.75;;;4.68;;
29908;SDS011;36247;51.952;6.146;2024-03-25T01:30:41;25.02;;;4.78;;
29908;SDS011;36247;51.952;6.146;2024-03-25T01:33:07;29.67;;;4.82;;
29908;SDS011;36247;51.952;6.146;2024-03-25T01:35:32;25.00;;;4.15;;
29908;SDS011;36247;51.952;6.146;2024-03-25T01:37:57;22.20;;;4.20;;
29908;SDS011;36247;51.952;6.146;2024-03-25T01:40:23;24.73;;;4.30;;
29908;SDS011;36247;51.952;6.146;2024-03-25T01:42:58;21.60;;;4.53;;
29908;SDS011;36247;51.952;6.146;2024-03-25T01:45:24;24.95;;;4.82;;
29908;SDS011;36247;51.952;6.146;2024-03-25T01:47:51;25.17;;;5.10;;
29908;SDS011;36247;51.952;6.146;2024-03-25T01:50:17;21.88;;;4.43;;
29908;SDS011;36247;51.952;6.146;2024-03-25T01:52:44;30.38;;;6.22;;
29908;SDS011;36247;51.952;6.146;2024-03-25T01:55:12;27.77;;;5.82;;
29908;SDS011;36247;51.952;6.146;2024-03-25T01:57:43;28.13;;;5.38;;
29908;SDS011;36247;51.952;6.146;2024-03-25T02:00:10;26.88;;;5.07;;
29908;SDS011;36247;51.952;6.146;2024-03-25T02:02:44;28.30;;;5.28;;
29908;SDS011;36247;51.952;6.146;2024-03-25T02:05:11;29.52;;;5.60;;
29908;SDS011;36247;51.952;6.146;2024-03-25T02:07:39;25.48;;;5.13;;
29908;SDS011;36247;51.952;6.146;2024-03-25T02:10:07;34.53;;;5.68;;
29908;SDS011;36247;51.952;6.146;2024-03-25T02:12:35;36.35;;;5.88;;
29908;SDS011;36247;51.952;6.146;2024-03-25T02:15:01;33.83;;;7.43;;
29908;SDS011;36247;51.952;6.146;2024-03-25T02:17:27;31.58;;;6.55;;
29908;SDS011;36247;51.952;6.146;2024-03-25T02:19:52;23.17;;;5.43;;
29908;SDS011;36247;51.952;6.146;2024-03-25T02:22:18;26.00;;;5.72;;
29908;SDS011;36247;51.952;6.146;2024-03-25T02:24:45;31.08;;;6.60;;
29908;SDS011;36247;51.952;6.146;2024-03-25T02:27:11;26.70;;;6.07;;
29908;SDS011;36247;51.952;6.146;2024-03-25T02:29:39;26.08;;;6.38;;
29908;SDS011;36247;51.952;6.146;2024-03-25T02:32:09;30.10;;;6.00;;
29908;SDS011;36247;51.952;6.146;2024-03-25T02:34:39;35.75;;;8.20;;
29908;SDS011;36247;51.952;6.146;2024-03-25T02:37:06;40.80;;;7.20;;
29908;SDS011;36247;51.952;6.146;2024-03-25T02:39:32;31.58;;;6.65;;
29908;SDS011;36247;51.952;6.146;2024-03-25T02:41:59;33.05;;;6.35;;
29908;SDS011;36247;51.952;6.146;2024-03-25T02:44:24;38.35;;;6.55;;
29908;SDS011;36247;51.952;6.146;2024-03-25T02:46:50;39.47;;;7.72;;
29908;SDS011;36247;51.952;6.146;2024-03-25T02:49:17;29.58;;;6.07;;
29908;SDS011;36247;51.952;6.146;2024-03-25T02:51:42;31.60;;;6.88;;
29908;SDS011;36247;51.952;6.146;2024-03-25T02:54:08;28.30;;;5.78;;
29908;SDS011;36247;51.952;6.146;2024-03-25T02:56:36;22.88;;;6.38;;
29908;SDS011;36247;51.952;6.146;2024-03-25T02:59:02;31.52;;;7.22;;
29908;SDS011;36247;51.952;6.146;2024-03-25T03:01:27;34.22;;;6.60;;
29908;SDS011;36247;51.952;6.146;2024-03-25T03:03:53;42.03;;;9.43;;
29908;SDS011;36247;51.952;6.146;2024-03-25T03:06:18;32.25;;;7.25;;
29908;SDS011;36247;51.952;6.146;2024-03-25T03:08:44;35.55;;;7.35;;
29908;SDS011;36247;51.952;6.146;2024-03-25T03:11:09;27.77;;;6.80;;
29908;SDS011;36247;51.952;6.146;2024-03-25T03:13:35;40.40;;;7.85;;
29908;SDS011;36247;51.952;6.146;2024-03-25T03:16:00;36.70;;;6.10;;
29908;SDS011;36247;51.952;6.146;2024-03-25T03:18:26;32.45;;;6.57;;
29908;SDS011;36247;51.952;6.146;2024-03-25T03:20:52;37.17;;;7.95;;
29908;SDS011;36247;51.952;6.146;2024-03-25T03:23:20;33.50;;;6.90;;
29908;SDS011;36247;51.952;6.146;2024-03-25T03:25:46;42.08;;;7.93;;
29908;SDS011;36247;51.952;6.146;2024-03-25T03:28:11;28.38;;;6.75;;
29908;SDS011;36247;51.952;6.146;2024-03-25T03:30:37;31.25;;;8.95;;
29908;SDS011;36247;51.952;6.146;2024-03-25T03:33:02;24.35;;;7.03;;
29908;SDS011;36247;51.952;6.146;2024-03-25T03:35:28;34.75;;;8.40;;
29908;SDS011;36247;51.952;6.146;2024-03-25T03:37:53;57.80;;;9.90;;
29908;SDS011;36247;51.952;6.146;2024-03-25T03:40:18;39.42;;;8.00;;
29908;SDS011;36247;51.952;6.146;2024-03-25T03:42:44;34.75;;;8.23;;
29908;SDS011;36247;51.952;6.146;2024-03-25T03:45:09;39.38;;;9.15;;
29908;SDS011;36247;51.952;6.146;2024-03-25T03:47:35;37.85;;;8.10;;
29908;SDS011;36247;51.952;6.146;2024-03-25T03:50:00;27.20;;;8.32;;
29908;SDS011;36247;51.952;6.146;2024-03-25T03:52:26;33.13;;;8.13;;
29908;SDS011;36247;51.952;6.146;2024-03-25T03:54:51;33.00;;;9.25;;
29908;SDS011;36247;51.952;6.146;2024-03-25T03:57:17;36.80;;;7.55;;
29908;SDS011;36247;51.952;6.146;2024-03-25T03:59:42;35.92;;;8.52;;
29908;SDS011;36247;51.952;6.146;2024-03-25T04:02:08;33.53;;;7.13;;
29908;SDS011;36247;51.952;6.146;2024-03-25T04:04:33;28.98;;;7.22;;
29908;SDS011;36247;51.952;6.146;2024-03-25T04:07:00;33.55;;;8.07;;
29908;SDS011;36247;51.952;6.146;2024-03-25T04:09:27;43.60;;;9.18;;
29908;SDS011;36247;51.952;6.146;2024-03-25T04:11:54;40.70;;;7.80;;
29908;SDS011;36247;51.952;6.146;2024-03-25T04:14:20;37.50;;;7.78;;
29908;SDS011;36247;51.952;6.146;2024-03-25T04:16:45;32.55;;;8.10;;
29908;SDS011;36247;51.952;6.146;2024-03-25T04:19:12;32.95;;;7.15;;
29908;SDS011;36247;51.952;6.146;2024-03-25T04:21:38;30.15;;;7.85;;
29908;SDS011;36247;51.952;6.146;2024-03-25T04:24:04;35.95;;;8.13;;
29908;SDS011;36247;51.952;6.146;2024-03-25T04:26:31;30.98;;;7.82;;
29908;SDS011;36247;51.952;6.146;2024-03-25T04:28:56;36.38;;;8.30;;
29908;SDS011;36247;51.952;6.146;2024-03-25T04:31:22;33.10;;;8.27;;
29908;SDS011;36247;51.952;6.146;2024-03-25T04:33:47;49.45;;;10.00;;
29908;SDS011;36247;51.952;6.146;2024-03-25T04:36:13;30.63;;;8.18;;
29908;SDS011;36247;51.952;6.146;2024-03-25T04:38:38;50.10;;;9.75;;
29908;SDS011;36247;51.952;6.146;2024-03-25T04:41:04;38.88;;;9.57;;
29908;SDS011;36247;51.952;6.146;2024-03-25T04:43:29;34.55;;;8.23;;
29908;SDS011;36247;51.952;6.146;2024-03-25T04:45:55;34.50;;;9.27;;
29908;SDS011;36247;51.952;6.146;2024-03-25T04:48:20;31.48;;;8.30;;
29908;SDS011;36247;51.952;6.146;2024-03-25T04:50:46;33.97;;;9.60;;
29908;SDS011;36247;51.952;6.146;2024-03-25T04:53:12;32.05;;;8.95;;
29908;SDS011;36247;51.952;6.146;2024-03-25T04:55:38;47.65;;;8.68;;
29908;SDS011;36247;51.952;6.146;2024-03-25T04:58:03;37.53;;;8.93;;
29908;SDS011;36247;51.952;6.146;2024-03-25T05:00:29;29.60;;;8.05;;
29908;SDS011;36247;51.952;6.146;2024-03-25T05:02:54;28.40;;;6.97;;
29908;SDS011;36247;51.952;6.146;2024-03-25T05:05:20;27.00;;;8.68;;
29908;SDS011;36247;51.952;6.146;2024-03-25T05:07:47;31.25;;;8.60;;
29908;SDS011;36247;51.952;6.146;2024-03-25T05:10:13;31.60;;;7.28;;
29908;SDS011;36247;51.952;6.146;2024-03-25T05:12:39;39.13;;;8.48;;
29908;SDS011;36247;51.952;6.146;2024-03-25T05:15:04;32.75;;;8.30;;
29908;SDS011;36247;51.952;6.146;2024-03-25T05:17:31;49.25;;;8.48;;
29908;SDS011;36247;51.952;6.146;2024-03-25T05:19:56;32.97;;;7.97;;
29908;SDS011;36247;51.952;6.146;2024-03-25T05:22:21;32.45;;;8.25;;
29908;SDS011;36247;51.952;6.146;2024-03-25T05:24:47;38.63;;;8.40;;
29908;SDS011;36247;51.952;6.146;2024-03-25T05:27:14;30.50;;;9.55;;
29908;SDS011;36247;51.952;6.146;2024-03-25T05:29:40;28.70;;;7.20;;
29908;SDS011;36247;51.952;6.146;2024-03-25T05:32:05;30.58;;;8.35;;
29908;SDS011;36247;51.952;6.146;2024-03-25T05:34:31;27.13;;;7.22;;
29908;SDS011;36247;51.952;6.146;2024-03-25T05:36:56;25.63;;;7.65;;
29908;SDS011;36247;51.952;6.146;2024-03-25T05:39:22;30.67;;;8.07;;
29908;SDS011;36247;51.952;6.146;2024-03-25T05:41:48;30.42;;;7.53;;
29908;SDS011;36247;51.952;6.146;2024-03-25T05:44:14;40.88;;;8.93;;
29908;SDS011;36247;51.952;6.146;2024-03-25T05:46:39;37.20;;;8.30;;
29908;SDS011;36247;51.952;6.146;2024-03-25T05:49:05;31.10;;;7.70;;
29908;SDS011;36247;51.952;6.146;2024-03-25T05:51:31;31.25;;;8.63;;
29908;SDS011;36247;51.952;6.146;2024-03-25T05:53:59;36.28;;;8.30;;
29908;SDS011;36247;51.952;6.146;2024-03-25T05:56:24;38.65;;;9.38;;
29908;SDS011;36247;51.952;6.146;2024-03-25T05:58:55;26.40;;;8.02;;
29908;SDS011;36247;51.952;6.146;2024-03-25T06:01:21;37.33;;;8.30;;
29908;SDS011;36247;51.952;6.146;2024-03-25T06:03:47;35.35;;;8.25;;
29908;SDS011;36247;51.952;6.146;2024-03-25T06:06:13;33.22;;;8.40;;
29908;SDS011;36247;51.952;6.146;2024-03-25T06:08:38;45.72;;;8.48;;
29908;SDS011;36247;51.952;6.146;2024-03-25T06:11:04;30.20;;;9.52;;
29908;SDS011;36247;51.952;6.146;2024-03-25T06:13:29;38.55;;;9.75;;
29908;SDS011;36247;51.952;6.146;2024-03-25T06:15:55;40.85;;;8.07;;
29908;SDS011;36247;51.952;6.146;2024-03-25T06:18:20;32.95;;;8.93;;
29908;SDS011;36247;51.952;6.146;2024-03-25T06:20:45;34.25;;;8.65;;
29908;SDS011;36247;51.952;6.146;2024-03-25T06:23:20;38.35;;;8.57;;
29908;SDS011;36247;51.952;6.146;2024-03-25T06:25:47;34.38;;;8.50;;
29908;SDS011;36247;51.952;6.146;2024-03-25T06:28:13;36.03;;;9.93;;
29908;SDS011;36247;51.952;6.146;2024-03-25T06:30:38;22.92;;;8.70;;
29908;SDS011;36247;51.952;6.146;2024-03-25T06:33:22;37.10;;;8.93;;
29908;SDS011;36247;51.952;6.146;2024-03-25T06:36:14;41.50;;;10.30;;
29908;SDS011;36247;51.952;6.146;2024-03-25T06:38:39;45.08;;;12.30;;
29908;SDS011;36247;51.952;6.146;2024-03-25T06:41:05;36.25;;;10.18;;
29908;SDS011;36247;51.952;6.146;2024-03-25T06:43:30;49.28;;;10.20;;
29908;SDS011;36247;51.952;6.146;2024-03-25T06:45:55;30.90;;;9.73;;
29908;SDS011;36247;51.952;6.146;2024-03-25T06:48:21;28.33;;;8.63;;
29908;SDS011;36247;51.952;6.146;2024-03-25T06:50:56;47.17;;;9.73;;
29908;SDS011;36247;51.952;6.146;2024-03-25T06:53:22;36.42;;;9.10;;
29908;SDS011;36247;51.952;6.146;2024-03-25T06:58:18;35.75;;;9.23;;
29908;SDS011;36247;51.952;6.146;2024-03-25T07:00:47;27.67;;;8.48;;
29908;SDS011;36247;51.952;6.146;2024-03-25T07:03:14;32.83;;;9.25;;
29908;SDS011;36247;51.952;6.146;2024-03-25T07:05:49;39.67;;;9.07;;
29908;SDS011;36247;51.952;6.146;2024-03-25T07:08:20;34.55;;;9.40;;
29908;SDS011;36247;51.952;6.146;2024-03-25T07:10:45;30.77;;;9.23;;
29908;SDS011;36247;51.952;6.146;2024-03-25T07:13:12;38.97;;;9.25;;
29908;SDS011;36247;51.952;6.146;2024-03-25T07:15:37;29.50;;;8.38;;
29908;SDS011;36247;51.952;6.146;2024-03-25T07:18:03;32.97;;;8.85;;
29908;SDS011;36247;51.952;6.146;2024-03-25T07:20:30;33.38;;;8.85;;
29908;SDS011;36247;51.952;6.146;2024-03-25T07:22:56;29.52;;;7.57;;
29908;SDS011;36247;51.952;6.146;2024-03-25T07:25:22;32.65;;;8.48;;
29908;SDS011;36247;51.952;6.146;2024-03-25T07:27:50;32.70;;;8.65;;
29908;SDS011;36247;51.952;6.146;2024-03-25T07:30:17;32.08;;;7.80;;
29908;SDS011;36247;51.952;6.146;2024-03-25T07:32:42;23.17;;;7.05;;
29908;SDS011;36247;51.952;6.146;2024-03-25T07:35:10;26.40;;;8.00;;
29908;SDS011;36247;51.952;6.146;2024-03-25T07:37:36;27.77;;;6.82;;
29908;SDS011;36247;51.952;6.146;2024-03-25T07:40:02;32.13;;;8.15;;
29908;SDS011;36247;51.952;6.146;2024-03-25T07:42:29;24.13;;;7.90;;
29908;SDS011;36247;51.952;6.146;2024-03-25T07:44:55;32.92;;;7.72;;
29908;SDS011;36247;51.952;6.146;2024-03-25T07:47:21;38.10;;;6.72;;
29908;SDS011;36247;51.952;6.146;2024-03-25T07:49:46;31.15;;;8.10;;
29908;SDS011;36247;51.952;6.146;2024-03-25T07:52:11;32.85;;;7.22;;
29908;SDS011;36247;51.952;6.146;2024-03-25T07:54:37;26.65;;;7.53;;
29908;SDS011;36247;51.952;6.146;2024-03-25T07:57:03;24.42;;;7.30;;
29908;SDS011;36247;51.952;6.146;2024-03-25T07:59:29;29.20;;;7.72;;
29908;SDS011;36247;51.952;6.146;2024-03-25T08:01:55;31.77;;;7.68;;
29908;SDS011;36247;51.952;6.146;2024-03-25T08:04:20;37.22;;;8.43;;
29908;SDS011;36247;51.952;6.146;2024-03-25T08:06:46;31.83;;;7.25;;
29908;SDS011;36247;51.952;6.146;2024-03-25T08:09:11;28.42;;;6.32;;
29908;SDS011;36247;51.952;6.146;2024-03-25T08:11:39;27.02;;;6.53;;
29908;SDS011;36247;51.952;6.146;2024-03-25T08:14:04;21.00;;;5.43;;
29908;SDS011;36247;51.952;6.146;2024-03-25T08:16:30;28.75;;;6.97;;
29908;SDS011;36247;51.952;6.146;2024-03-25T08:18:55;26.02;;;6.85;;
29908;SDS011;36247;51.952;6.146;2024-03-25T08:21:21;22.60;;;5.60;;
29908;SDS011;36247;51.952;6.146;2024-03-25T08:23:47;34.22;;;6.25;;
29908;SDS011;36247;51.952;6.146;2024-03-25T08:26:13;20.20;;;5.45;;
29908;SDS011;36247;51.952;6.146;2024-03-25T08:28:38;23.85;;;6.45;;
29908;SDS011;36247;51.952;6.146;2024-03-25T08:31:04;22.85;;;5.97;;
29908;SDS011;36247;51.952;6.146;2024-03-25T08:33:30;21.40;;;5.70;;
29908;SDS011;36247;51.952;6.146;2024-03-25T08:35:55;25.98;;;6.28;;
29908;SDS011;36247;51.952;6.146;2024-03-25T08:38:21;36.88;;;7.90;;
29908;SDS011;36247;51.952;6.146;2024-03-25T08:40:46;30.10;;;5.80;;
29908;SDS011;36247;51.952;6.146;2024-03-25T08:43:12;21.63;;;7.13;;
29908;SDS011;36247;51.952;6.146;2024-03-25T08:45:37;18.50;;;6.05;;
29908;SDS011;36247;51.952;6.146;2024-03-25T08:48:03;26.73;;;6.03;;
29908;SDS011;36247;51.952;6.146;2024-03-25T08:50:28;15.65;;;3.67;;
29908;SDS011;36247;51.952;6.146;2024-03-25T08:52:54;24.95;;;6.15;;
29908;SDS011;36247;51.952;6.146;2024-03-25T08:55:19;20.63;;;4.47;;
29908;SDS011;36247;51.952;6.146;2024-03-25T08:57:45;16.58;;;4.20;;
29908;SDS011;36247;51.952;6.146;2024-03-25T09:00:10;21.67;;;3.85;;
29908;SDS011;36247;51.952;6.146;2024-03-25T09:02:37;23.08;;;5.38;;
29908;SDS011;36247;51.952;6.146;2024-03-25T09:05:02;16.85;;;4.30;;
29908;SDS011;36247;51.952;6.146;2024-03-25T09:07:31;23.08;;;3.97;;
29908;SDS011;36247;51.952;6.146;2024-03-25T09:09:56;19.98;;;4.80;;
29908;SDS011;36247;51.952;6.146;2024-03-25T09:12:41;17.58;;;5.05;;
29908;SDS011;36247;51.952;6.146;2024-03-25T09:15:06;20.98;;;4.78;;
29908;SDS011;36247;51.952;6.146;2024-03-25T09:17:32;22.95;;;4.90;;
29908;SDS011;36247;51.952;6.146;2024-03-25T09:19:57;18.05;;;4.10;;
29908;SDS011;36247;51.952;6.146;2024-03-25T09:22:22;13.60;;;4.40;;
29908;SDS011;36247;51.952;6.146;2024-03-25T09:24:49;14.10;;;4.13;;
29908;SDS011;36247;51.952;6.146;2024-03-25T09:27:14;17.05;;;3.70;;
29908;SDS011;36247;51.952;6.146;2024-03-25T09:29:41;15.70;;;4.50;;
29908;SDS011;36247;51.952;6.146;2024-03-25T09:32:07;16.67;;;4.75;;
29908;SDS011;36247;51.952;6.146;2024-03-25T09:34:32;21.27;;;4.50;;
29908;SDS011;36247;51.952;6.146;2024-03-25T09:36:58;14.43;;;3.78;;
29908;SDS011;36247;51.952;6.146;2024-03-25T09:39:23;13.18;;;3.65;;
29908;SDS011;36247;51.952;6.146;2024-03-25T09:41:48;15.73;;;4.03;;
29908;SDS011;36247;51.952;6.146;2024-03-25T09:44:18;15.40;;;3.45;;
29908;SDS011;36247;51.952;6.146;2024-03-25T09:46:44;15.57;;;4.28;;
29908;SDS011;36247;51.952;6.146;2024-03-25T09:49:10;15.25;;;3.50;;
29908;SDS011;36247;51.952;6.146;2024-03-25T09:51:35;19.38;;;3.85;;
29908;SDS011;36247;51.952;6.146;2024-03-25T09:54:01;17.55;;;4.28;;
29908;SDS011;36247;51.952;6.146;2024-03-25T09:56:26;15.52;;;3.15;;
29908;SDS011;36247;51.952;6.146;2024-03-25T09:58:52;12.05;;;3.75;;
29908;SDS011;36247;51.952;6.146;2024-03-25T10:01:18;21.20;;;3.83;;
29908;SDS011;36247;51.952;6.146;2024-03-25T10:03:44;15.20;;;3.65;;
29908;SDS011;36247;51.952;6.146;2024-03-25T10:06:09;10.68;;;4.43;;
29908;SDS011;36247;51.952;6.146;2024-03-25T10:08:35;13.57;;;3.80;;
29908;SDS011;36247;51.952;6.146;2024-03-25T10:11:00;21.08;;;5.55;;
29908;SDS011;36247;51.952;6.146;2024-03-25T10:13:27;15.73;;;4.78;;
29908;SDS011;36247;51.952;6.146;2024-03-25T10:15:52;9.68;;;3.85;;
29908;SDS011;36247;51.952;6.146;2024-03-25T10:18:20;14.60;;;3.83;;
29908;SDS011;36247;51.952;6.146;2024-03-25T10:20:51;16.17;;;4.47;;
29908;SDS011;36247;51.952;6.146;2024-03-25T10:23:20;12.82;;;3.83;;
29908;SDS011;36247;51.952;6.146;2024-03-25T10:25:52;15.52;;;4.30;;
29908;SDS011;36247;51.952;6.146;2024-03-25T10:28:18;15.93;;;3.72;;
29908;SDS011;36247;51.952;6.146;2024-03-25T10:30:44;16.52;;;5.18;;
29908;SDS011;36247;51.952;6.146;2024-03-25T10:33:09;23.27;;;4.93;;
29908;SDS011;36247;51.952;6.146;2024-03-25T10:35:36;22.38;;;5.72;;
29908;SDS011;36247;51.952;6.146;2024-03-25T10:38:03;23.85;;;5.25;;
29908;SDS011;36247;51.952;6.146;2024-03-25T10:40:36;11.57;;;3.33;;
29908;SDS011;36247;51.952;6.146;2024-03-25T10:43:03;10.23;;;3.08;;
29908;SDS011;36247;51.952;6.146;2024-03-25T10:45:46;12.73;;;3.75;;
29908;SDS011;36247;51.952;6.146;2024-03-25T10:48:17;18.23;;;4.97;;
29908;SDS011;36247;51.952;6.146;2024-03-25T10:50:45;11.27;;;3.28;;
29908;SDS011;36247;51.952;6.146;2024-03-25T10:53:11;12.60;;;3.65;;
29908;SDS011;36247;51.952;6.146;2024-03-25T10:55:39;19.23;;;3.85;;
29908;SDS011;36247;51.952;6.146;2024-03-25T10:58:05;12.48;;;3.42;;
29908;SDS011;36247;51.952;6.146;2024-03-25T11:00:33;9.82;;;3.17;;
29908;SDS011;36247;51.952;6.146;2024-03-25T11:03:00;14.18;;;4.65;;
29908;SDS011;36247;51.952;6.146;2024-03-25T11:05:26;15.57;;;4.55;;
29908;SDS011;36247;51.952;6.146;2024-03-25T11:07:52;15.98;;;4.40;;
29908;SDS011;36247;51.952;6.146;2024-03-25T11:10:17;15.02;;;4.72;;
29908;SDS011;36247;51.952;6.146;2024-03-25T11:12:43;13.20;;;3.63;;
29908;SDS011;36247;51.952;6.146;2024-03-25T11:15:09;13.82;;;3.47;;
29908;SDS011;36247;51.952;6.146;2024-03-25T11:17:35;17.05;;;4.85;;
29908;SDS011;36247;51.952;6.146;2024-03-25T11:20:15;19.70;;;3.95;;
29908;SDS011;36247;51.952;6.146;2024-03-25T11:22:53;14.05;;;4.68;;
29908;SDS011;36247;51.952;6.146;2024-03-25T11:25:22;16.70;;;4.18;;
29908;SDS011;36247;51.952;6.146;2024-03-25T11:27:47;12.98;;;4.03;;
29908;SDS011;36247;51.952;6.146;2024-03-25T11:30:14;15.80;;;4.45;;
29908;SDS011;36247;51.952;6.146;2024-03-25T11:32:51;15.00;;;4.47;;
29908;SDS011;36247;51.952;6.146;2024-03-25T11:35:17;19.52;;;4.80;;
29908;SDS011;36247;51.952;6.146;2024-03-25T11:37:44;15.77;;;4.55;;
29908;SDS011;36247;51.952;6.146;2024-03-25T11:40:10;14.68;;;4.28;;
29908;SDS011;36247;51.952;6.146;2024-03-25T11:42:41;12.13;;;4.72;;
29908;SDS011;36247;51.952;6.146;2024-03-25T11:45:16;17.17;;;4.32;;
29908;SDS011;36247;51.952;6.146;2024-03-25T11:47:44;12.82;;;4.53;;
29908;SDS011;36247;51.952;6.146;2024-03-25T11:50:17;14.85;;;4.35;;
29908;SDS011;36247;51.952;6.146;2024-03-25T11:52:44;12.27;;;4.50;;
29908;SDS011;36247;51.952;6.146;2024-03-25T11:55:09;10.60;;;4.18;;
29908;SDS011;36247;51.952;6.146;2024-03-25T11:57:37;17.13;;;4.22;;
29908;SDS011;36247;51.952;6.146;2024-03-25T12:00:03;11.30;;;4.25;;
29908;SDS011;36247;51.952;6.146;2024-03-25T12:02:38;17.42;;;5.55;;
29908;SDS011;36247;51.952;6.146;2024-03-25T12:05:07;11.02;;;4.78;;
29908;SDS011;36247;51.952;6.146;2024-03-25T12:07:33;10.82;;;4.70;;
29908;SDS011;36247;51.952;6.146;2024-03-25T12:10:00;10.68;;;4.57;;
29908;SDS011;36247;51.952;6.146;2024-03-25T12:12:44;12.05;;;4.30;;
29908;SDS011;36247;51.952;6.146;2024-03-25T12:15:10;11.73;;;4.13;;
29908;SDS011;36247;51.952;6.146;2024-03-25T12:17:36;11.60;;;4.30;;
29908;SDS011;36247;51.952;6.146;2024-03-25T12:20:02;14.02;;;4.15;;
29908;SDS011;36247;51.952;6.146;2024-03-25T12:22:31;13.20;;;3.63;;
29908;SDS011;36247;51.952;6.146;2024-03-25T12:24:59;8.13;;;3.00;;
29908;SDS011;36247;51.952;6.146;2024-03-25T12:27:25;11.38;;;3.35;;
29908;SDS011;36247;51.952;6.146;2024-03-25T12:29:59;11.80;;;3.30;;
29908;SDS011;36247;51.952;6.146;2024-03-25T12:32:36;10.23;;;3.55;;
29908;SDS011;36247;51.952;6.146;2024-03-25T12:35:02;10.25;;;3.17;;
29908;SDS011;36247;51.952;6.146;2024-03-25T12:37:30;11.43;;;3.75;;
29908;SDS011;36247;51.952;6.146;2024-03-25T12:39:55;7.32;;;3.25;;
29908;SDS011;36247;51.952;6.146;2024-03-25T12:42:23;9.05;;;3.28;;
29908;SDS011;36247;51.952;6.146;2024-03-25T12:44:50;6.30;;;3.05;;
29908;SDS011;36247;51.952;6.146;2024-03-25T12:47:16;6.75;;;2.25;;
29908;SDS011;36247;51.952;6.146;2024-03-25T12:49:42;11.48;;;3.17;;
29908;SDS011;36247;51.952;6.146;2024-03-25T12:52:07;7.50;;;3.00;;
29908;SDS011;36247;51.952;6.146;2024-03-25T12:54:33;7.10;;;3.22;;
29908;SDS011;36247;51.952;6.146;2024-03-25T12:56:58;6.55;;;2.33;;
29908;SDS011;36247;51.952;6.146;2024-03-25T12:59:24;13.60;;;3.28;;
29908;SDS011;36247;51.952;6.146;2024-03-25T13:01:49;9.60;;;3.08;;
29908;SDS011;36247;51.952;6.146;2024-03-25T13:04:16;7.07;;;2.95;;
29908;SDS011;36247;51.952;6.146;2024-03-25T13:06:41;8.98;;;3.30;;
29908;SDS011;36247;51.952;6.146;2024-03-25T13:09:07;8.95;;;3.58;;
29908;SDS011;36247;51.952;6.146;2024-03-25T13:11:32;9.85;;;3.45;;
29908;SDS011;36247;51.952;6.146;2024-03-25T13:13:58;7.32;;;3.00;;
29908;SDS011;36247;51.952;6.146;2024-03-25T13:16:25;6.45;;;2.75;;
29908;SDS011;36247;51.952;6.146;2024-03-25T13:18:51;11.75;;;3.90;;
29908;SDS011;36247;51.952;6.146;2024-03-25T13:21:16;10.55;;;3.28;;
29908;SDS011;36247;51.952;6.146;2024-03-25T13:23:41;8.60;;;3.53;;
29908;SDS011;36247;51.952;6.146;2024-03-25T13:26:07;13.95;;;3.28;;
29908;SDS011;36247;51.952;6.146;2024-03-25T13:28:32;11.15;;;3.42;;
29908;SDS011;36247;51.952;6.146;2024-03-25T13:30:58;9.15;;;3.97;;
29908;SDS011;36247;51.952;6.146;2024-03-25T13:33:23;9.90;;;3.92;;
29908;SDS011;36247;51.952;6.146;2024-03-25T13:35:48;8.18;;;3.65;;
29908;SDS011;36247;51.952;6.146;2024-03-25T13:38:14;9.07;;;3.60;;
29908;SDS011;36247;51.952;6.146;2024-03-25T13:40:39;8.63;;;3.38;;
29908;SDS011;36247;51.952;6.146;2024-03-25T13:43:05;11.77;;;4.03;;
29908;SDS011;36247;51.952;6.146;2024-03-25T13:45:33;12.57;;;3.70;;
29908;SDS011;36247;51.952;6.146;2024-03-25T13:47:58;12.35;;;3.65;;
29908;SDS011;36247;51.952;6.146;2024-03-25T13:50:24;10.57;;;3.60;;
29908;SDS011;36247;51.952;6.146;2024-03-25T13:52:49;12.75;;;4.15;;
29908;SDS011;36247;51.952;6.146;2024-03-25T13:55:14;12.88;;;3.95;;
29908;SDS011;36247;51.952;6.146;2024-03-25T13:57:40;8.23;;;3.78;;
29908;SDS011;36247;51.952;6.146;2024-03-25T14:00:06;8.70;;;3.75;;
29908;SDS011;36247;51.952;6.146;2024-03-25T14:02:37;8.88;;;3.47;;
29908;SDS011;36247;51.952;6.146;2024-03-25T14:05:04;7.93;;;3.67;;
29908;SDS011;36247;51.952;6.146;2024-03-25T14:07:30;12.07;;;4.32;;
29908;SDS011;36247;51.952;6.146;2024-03-25T14:09:55;7.03;;;3.53;;
29908;SDS011;36247;51.952;6.146;2024-03-25T14:12:20;8.38;;;3.78;;
29908;SDS011;36247;51.952;6.146;2024-03-25T14:14:46;9.07;;;3.33;;
29908;SDS011;36247;51.952;6.146;2024-03-25T14:17:11;12.55;;;3.75;;
29908;SDS011;36247;51.952;6.146;2024-03-25T14:19:36;7.55;;;2.97;;
29908;SDS011;36247;51.952;6.146;2024-03-25T14:22:02;6.55;;;3.25;;
29908;SDS011;36247;51.952;6.146;2024-03-25T14:24:27;8.38;;;3.13;;
29908;SDS011;36247;51.952;6.146;2024-03-25T14:26:53;6.68;;;2.80;;
29908;SDS011;36247;51.952;6.146;2024-03-25T14:29:18;6.55;;;2.70;;
29908;SDS011;36247;51.952;6.146;2024-03-25T14:31:44;10.27;;;3.30;;
29908;SDS011;36247;51.952;6.146;2024-03-25T14:34:09;6.75;;;3.17;;